Time;durP1;ratioP1;P1;durP2;ratioP2;P2;SDS_P1;SDS_P2;PMS_P1;PMS_P2;Temp;Humidity;BMP_temperature;BMP_pressure;BME280_temperature;BME280_humidity;BME280_pressure;Samples;Min_cycle;Max_cycle;Signal;HPM_P1;HPM_P2
2022/02/27 00:00:05;;;;;;;22.07;15.70;;;;;;;;;;2052295;28;20412;-59
2022/02/27 00:01:13;;;;;;;24.00;15.77;;;;;;;;;;2056386;28;20174;-58
2022/02/27 00:02:13;;;;;;;21.93;14.90;;;;;;;;;;2055784;28;20428;-60
2022/02/27 00:03:13;;;;;;;20.73;16.17;;;;;;;;;;2055940;28;20201;-62
2022/02/27 00:04:13;;;;;;;22.27;16.30;;;;;;;;;;2055093;28;20204;-57
2022/02/27 00:05:14;;;;;;;22.37;15.03;;;;;;;;;;2055928;28;20202;-58
2022/02/27 00:06:14;;;;;;;21.70;14.40;;;;;;;;;;2055420;28;20783;-58
2022/02/27 00:07:15;;;;;;;20.20;16.00;;;;;;;;;;2055972;28;20206;-59
2022/02/27 00:08:15;;;;;;;21.47;16.07;;;;;;;;;;2055798;28;20192;-58
2022/02/27 00:09:15;;;;;;;21.47;14.93;;;;;;;;;;2056058;28;20209;-62
2022/02/27 00:10:19;;;;;;;25.13;16.00;;;;;;;;;;2056379;28;20269;-62
2022/02/27 00:11:19;;;;;;;21.77;15.53;;;;;;;;;;2055564;28;20198;-60
2022/02/27 00:12:20;;;;;;;19.87;15.93;;;;;;;;;;2055912;28;20417;-60
2022/02/27 00:13:20;;;;;;;19.03;15.57;;;;;;;;;;2053865;28;20329;-58
2022/02/27 00:14:20;;;;;;;21.67;14.80;;;;;;;;;;2054425;28;20729;-61
2022/02/27 00:15:20;;;;;;;28.83;16.60;;;;;;;;;;2054851;28;20174;-59
2022/02/27 00:16:21;;;;;;;22.57;16.00;;;;;;;;;;2055537;28;20201;-60
2022/02/27 00:17:22;;;;;;;21.30;15.10;;;;;;;;;;2054163;28;20203;-60
2022/02/27 00:18:22;;;;;;;24.73;16.33;;;;;;;;;;2055431;28;20465;-62
2022/02/27 00:19:23;;;;;;;20.87;15.40;;;;;;;;;;2053961;28;20275;-60
2022/02/27 00:20:24;;;;;;;17.43;15.47;;;;;;;;;;2055937;28;20179;-59
2022/02/27 00:21:24;;;;;;;23.67;15.73;;;;;;;;;;2053485;28;20413;-61
2022/02/27 00:22:24;;;;;;;22.63;16.00;;;;;;;;;;2056690;28;20852;-59
2022/02/27 00:23:24;;;;;;;33.23;22.83;;;;;;;;;;2056147;28;20210;-57
2022/02/27 00:24:25;;;;;;;30.27;20.87;;;;;;;;;;2056920;28;20221;-60
2022/02/27 00:25:26;;;;;;;27.70;18.93;;;;;;;;;;2056025;28;20683;-63
2022/02/27 00:26:26;;;;;;;24.77;17.20;;;;;;;;;;2056106;28;20436;-56
2022/02/27 00:27:26;;;;;;;25.87;17.87;;;;;;;;;;2056444;28;20826;-62
2022/02/27 00:28:27;;;;;;;24.87;17.53;;;;;;;;;;2049781;28;20554;-60
2022/02/27 00:29:27;;;;;;;24.90;17.23;;;;;;;;;;2057503;28;20189;-61
2022/02/27 00:30:27;;;;;;;20.07;16.40;;;;;;;;;;2050002;28;20175;-58
2022/02/27 00:31:27;;;;;;;25.17;16.80;;;;;;;;;;2056121;28;20205;-60
2022/02/27 00:32:27;;;;;;;22.33;15.90;;;;;;;;;;2058499;28;20185;-61
2022/02/27 00:33:28;;;;;;;29.77;16.93;;;;;;;;;;2057694;28;20262;-63
2022/02/27 00:34:28;;;;;;;21.00;17.17;;;;;;;;;;2057528;28;20182;-61
2022/02/27 00:35:28;;;;;;;20.80;16.50;;;;;;;;;;2057792;28;20190;-61
2022/02/27 00:36:30;;;;;;;25.13;17.43;;;;;;;;;;2058098;28;20546;-59
2022/02/27 00:37:30;;;;;;;29.27;16.97;;;;;;;;;;2068031;23;20526;-56
2022/02/27 00:38:31;;;;;;;26.10;16.27;;;;;;;;;;2055652;28;20746;-54
2022/02/27 00:39:31;;;;;;;24.07;16.73;;;;;;;;;;2062428;28;20171;-57
2022/02/27 00:40:32;;;;;;;22.83;14.97;;;;;;;;;;2055122;29;20255;-55
2022/02/27 00:41:33;;;;;;;19.33;14.83;;;;;;;;;;2055969;28;20424;-54
2022/02/27 00:42:33;;;;;;;20.00;15.37;;;;;;;;;;2063305;28;20404;-54
2022/02/27 00:43:34;;;;;;;21.67;15.63;;;;;;;;;;2056153;28;20266;-54
2022/02/27 00:44:34;;;;;;;24.97;16.30;;;;;;;;;;2055321;29;20234;-55
2022/02/27 00:45:34;;;;;;;21.23;15.37;;;;;;;;;;2060998;28;20680;-55
2022/02/27 00:46:35;;;;;;;20.93;15.27;;;;;;;;;;2041371;28;20256;-52
2022/02/27 00:47:37;;;;;;;22.83;14.97;;;;;;;;;;2043983;29;20234;-54
2022/02/27 00:48:38;;;;;;;25.50;16.77;;;;;;;;;;2049243;28;20581;-53
2022/02/27 00:49:38;;;;;;;23.90;14.80;;;;;;;;;;2055195;28;20464;-53
2022/02/27 00:50:38;;;;;;;21.20;16.37;;;;;;;;;;2049416;29;20175;-56
2022/02/27 00:51:39;;;;;;;25.30;17.00;;;;;;;;;;2041413;29;20192;-56
2022/02/27 00:52:41;;;;;;;21.80;16.30;;;;;;;;;;2041520;29;20567;-56
2022/02/27 00:53:42;;;;;;;23.03;16.30;;;;;;;;;;2050184;28;20707;-53
2022/02/27 00:54:42;;;;;;;25.80;16.40;;;;;;;;;;2057504;28;20522;-52
2022/02/27 00:55:42;;;;;;;25.60;14.97;;;;;;;;;;2054277;28;20230;-53
2022/02/27 00:56:42;;;;;;;22.93;16.70;;;;;;;;;;2049105;29;20198;-52
2022/02/27 00:57:43;;;;;;;21.00;15.87;;;;;;;;;;2047841;28;20206;-54
2022/02/27 00:58:46;;;;;;;22.77;15.97;;;;;;;;;;2049049;29;20179;-57
2022/02/27 00:59:47;;;;;;;22.87;15.83;;;;;;;;;;2051042;28;20190;-55
2022/02/27 01:00:47;;;;;;;23.17;15.90;;;;;;;;;;2057367;28;20412;-54
2022/02/27 01:01:47;;;;;;;25.97;15.60;;;;;;;;;;2048640;28;20672;-56
2022/02/27 01:02:47;;;;;;;20.20;16.07;;;;;;;;;;2049030;29;20695;-56
2022/02/27 01:03:48;;;;;;;27.77;17.00;;;;;;;;;;2057711;28;20198;-55
2022/02/27 01:04:48;;;;;;;22.67;16.87;;;;;;;;;;2049802;29;20205;-56
2022/02/27 01:05:49;;;;;;;26.27;16.43;;;;;;;;;;2038140;29;20185;-56
2022/02/27 01:06:49;;;;;;;23.57;17.07;;;;;;;;;;2043943;29;20172;-57
2022/02/27 01:07:50;;;;;;;23.77;15.70;;;;;;;;;;2043827;29;20277;-56
2022/02/27 01:08:50;;;;;;;22.83;16.70;;;;;;;;;;2048350;29;20210;-57
2022/02/27 01:09:50;;;;;;;25.07;16.50;;;;;;;;;;2059519;28;20163;-56
2022/02/27 01:10:51;;;;;;;25.77;15.93;;;;;;;;;;2043825;28;20179;-59
2022/02/27 01:11:51;;;;;;;28.73;15.80;;;;;;;;;;2044050;29;20243;-56
2022/02/27 01:12:51;;;;;;;28.40;16.80;;;;;;;;;;2049338;28;20171;-56
2022/02/27 01:13:52;;;;;;;28.30;16.80;;;;;;;;;;2055167;28;20186;-55
2022/02/27 01:14:52;;;;;;;22.30;16.03;;;;;;;;;;2056258;28;20180;-55
2022/02/27 01:15:52;;;;;;;25.50;17.43;;;;;;;;;;2048198;29;20171;-59
2022/02/27 01:16:53;;;;;;;27.10;17.40;;;;;;;;;;2050017;29;20218;-58
2022/02/27 01:17:53;;;;;;;25.77;17.17;;;;;;;;;;2049399;28;20888;-58
2022/02/27 01:18:53;;;;;;;30.33;17.77;;;;;;;;;;2050267;29;20187;-57
2022/02/27 01:19:54;;;;;;;24.90;17.60;;;;;;;;;;2049293;29;20178;-56
2022/02/27 01:20:54;;;;;;;24.87;17.40;;;;;;;;;;2049648;29;20385;-57
2022/02/27 01:21:54;;;;;;;24.57;17.50;;;;;;;;;;2058319;28;20780;-57
2022/02/27 01:22:54;;;;;;;24.90;17.47;;;;;;;;;;2056208;28;20182;-56
2022/02/27 01:23:55;;;;;;;24.43;18.70;;;;;;;;;;2052532;28;20182;-56
2022/02/27 01:24:55;;;;;;;30.90;18.97;;;;;;;;;;2048065;29;20202;-56
2022/02/27 01:25:55;;;;;;;27.23;19.33;;;;;;;;;;2048951;29;20287;-55
2022/02/27 01:26:56;;;;;;;29.17;18.63;;;;;;;;;;2047532;29;20201;-57
2022/02/27 01:27:56;;;;;;;27.17;18.33;;;;;;;;;;2052476;28;20174;-56
2022/02/27 01:28:56;;;;;;;27.37;18.40;;;;;;;;;;2045704;29;20602;-57
2022/02/27 01:29:57;;;;;;;27.77;18.10;;;;;;;;;;2041546;29;20175;-56
2022/02/27 01:30:57;;;;;;;27.87;19.43;;;;;;;;;;2054913;28;20179;-56
2022/02/27 01:31:57;;;;;;;30.33;19.47;;;;;;;;;;2048954;28;20177;-54
2022/02/27 01:32:59;;;;;;;29.17;19.27;;;;;;;;;;2038466;29;20234;-53
2022/02/27 01:33:59;;;;;;;26.97;19.03;;;;;;;;;;2048320;29;20248;-53
2022/02/27 01:34:59;;;;;;;24.50;18.20;;;;;;;;;;2047656;29;20527;-52
2022/02/27 01:36:00;;;;;;;29.83;19.40;;;;;;;;;;2049840;29;20170;-53
2022/02/27 01:37:03;;;;;;;24.03;19.27;;;;;;;;;;2048426;29;20197;-56
2022/02/27 01:38:03;;;;;;;34.43;19.17;;;;;;;;;;2048973;28;20509;-52
2022/02/27 01:39:03;;;;;;;30.93;18.97;;;;;;;;;;2041330;29;20642;-54
2022/02/27 01:40:04;;;;;;;32.87;20.37;;;;;;;;;;2049270;29;20238;-57
2022/02/27 01:41:05;;;;;;;26.33;19.80;;;;;;;;;;2054434;28;20174;-55
2022/02/27 01:42:05;;;;;;;24.20;19.47;;;;;;;;;;2049246;29;20511;-57
2022/02/27 01:43:05;;;;;;;34.73;19.23;;;;;;;;;;2044867;29;20265;-56
2022/02/27 01:44:06;;;;;;;30.30;18.83;;;;;;;;;;2048290;29;20178;-57
2022/02/27 01:45:06;;;;;;;25.53;18.27;;;;;;;;;;2049102;29;20321;-53
2022/02/27 01:46:09;;;;;;;29.50;18.43;;;;;;;;;;2058686;28;20174;-55
2022/02/27 01:47:11;;;;;;;23.57;18.17;;;;;;;;;;2061415;28;20411;-57
2022/02/27 01:48:12;;;;;;;26.30;18.13;;;;;;;;;;2054568;28;20512;-57
2022/02/27 01:49:12;;;;;;;27.93;18.67;;;;;;;;;;2045937;29;20520;-56
2022/02/27 01:50:12;;;;;;;25.93;18.07;;;;;;;;;;2038546;29;20562;-56
2022/02/27 01:51:14;;;;;;;32.87;18.33;;;;;;;;;;2041654;29;20227;-56
2022/02/27 01:52:14;;;;;;;28.53;18.37;;;;;;;;;;2052216;28;20191;-56
2022/02/27 01:53:14;;;;;;;23.03;17.00;;;;;;;;;;2049999;28;20429;-52
2022/02/27 01:54:15;;;;;;;23.03;17.27;;;;;;;;;;2041365;29;20837;-53
2022/02/27 01:55:15;;;;;;;26.10;18.27;;;;;;;;;;2049173;29;20631;-59
2022/02/27 01:56:17;;;;;;;27.13;18.90;;;;;;;;;;2057817;28;20518;-55
2022/02/27 01:57:18;;;;;;;26.03;18.70;;;;;;;;;;2048761;28;20222;-51
2022/02/27 01:58:18;;;;;;;26.70;18.47;;;;;;;;;;2049497;29;20409;-55
2022/02/27 01:59:19;;;;;;;26.53;17.87;;;;;;;;;;2051449;28;20185;-56
2022/02/27 02:00:19;;;;;;;22.60;18.13;;;;;;;;;;2055472;28;20647;-57
2022/02/27 02:01:20;;;;;;;29.90;18.33;;;;;;;;;;2045821;29;20171;-50
2022/02/27 02:02:22;;;;;;;27.07;18.67;;;;;;;;;;2041324;29;20469;-55
2022/02/27 02:03:26;;;;;;;26.17;18.07;;;;;;;;;;2051400;28;20461;-56
2022/02/27 02:04:26;;;;;;;24.37;17.70;;;;;;;;;;2057992;28;20444;-56
2022/02/27 02:05:27;;;;;;;26.13;19.10;;;;;;;;;;2042632;29;20444;-54
2022/02/27 02:06:27;;;;;;;23.33;18.07;;;;;;;;;;2036178;29;20232;-57
2022/02/27 02:07:28;;;;;;;23.43;18.67;;;;;;;;;;2048835;28;20218;-52
2022/02/27 02:08:28;;;;;;;25.10;18.00;;;;;;;;;;2050023;28;20210;-56
2022/02/27 02:09:30;;;;;;;30.23;17.80;;;;;;;;;;2041956;29;20560;-55
2022/02/27 02:10:31;;;;;;;21.67;18.13;;;;;;;;;;2050246;28;20909;-55
2022/02/27 02:11:35;;;;;;;25.30;18.50;;;;;;;;;;2049037;29;20410;-55
2022/02/27 02:12:35;;;;;;;27.47;19.20;;;;;;;;;;2034331;29;20499;-55
2022/02/27 02:13:40;;;;;;;21.50;17.37;;;;;;;;;;2039555;29;20279;-55
2022/02/27 02:14:42;;;;;;;26.27;18.37;;;;;;;;;;2040757;29;20207;-54
2022/02/27 02:15:42;;;;;;;27.30;18.80;;;;;;;;;;2036177;29;20469;-54
2022/02/27 02:16:47;;;;;;;31.73;19.47;;;;;;;;;;2041618;29;20648;-56
2022/02/27 02:17:48;;;;;;;27.37;18.23;;;;;;;;;;2036514;29;20295;-56
2022/02/27 02:18:49;;;;;;;30.73;18.80;;;;;;;;;;2048643;28;20409;-56
2022/02/27 02:19:53;;;;;;;26.53;19.67;;;;;;;;;;2046935;28;20206;-53
2022/02/27 02:20:53;;;;;;;28.30;19.97;;;;;;;;;;2048638;29;20485;-55
2022/02/27 02:21:57;;;;;;;31.43;19.57;;;;;;;;;;2049582;28;20456;-55
2022/02/27 02:22:58;;;;;;;28.10;19.70;;;;;;;;;;2048948;29;20203;-53
2022/02/27 02:23:58;;;;;;;32.33;20.40;;;;;;;;;;2048363;29;20482;-54
2022/02/27 02:24:58;;;;;;;28.57;19.90;;;;;;;;;;2048473;29;20302;-54
2022/02/27 02:26:01;;;;;;;28.60;18.80;;;;;;;;;;2041670;29;20297;-55
2022/02/27 02:27:02;;;;;;;27.17;19.60;;;;;;;;;;2041635;29;20184;-55
2022/02/27 02:28:02;;;;;;;25.13;19.60;;;;;;;;;;2039507;29;20410;-55
2022/02/27 02:29:05;;;;;;;26.63;18.60;;;;;;;;;;2044915;29;20222;-53
2022/02/27 02:30:09;;;;;;;29.93;19.57;;;;;;;;;;2056849;28;20187;-54
2022/02/27 02:31:10;;;;;;;24.57;19.07;;;;;;;;;;2041419;29;20425;-54
2022/02/27 02:32:13;;;;;;;26.30;19.93;;;;;;;;;;2049576;29;20405;-57
2022/02/27 02:33:14;;;;;;;29.20;20.60;;;;;;;;;;2045029;28;20444;-55
2022/02/27 02:34:15;;;;;;;31.67;21.17;;;;;;;;;;2040842;29;20179;-55
2022/02/27 02:35:17;;;;;;;29.60;20.43;;;;;;;;;;2049652;28;20229;-53
2022/02/27 02:36:17;;;;;;;25.00;18.50;;;;;;;;;;2057480;28;21075;-56
2022/02/27 02:37:18;;;;;;;27.00;18.83;;;;;;;;;;2041152;29;20199;-55
2022/02/27 02:38:18;;;;;;;28.73;20.07;;;;;;;;;;2049732;29;20171;-56
2022/02/27 02:39:20;;;;;;;26.53;19.40;;;;;;;;;;2050544;28;20190;-54
2022/02/27 02:40:23;;;;;;;28.23;20.57;;;;;;;;;;2041450;29;20417;-53
2022/02/27 02:41:23;;;;;;;33.40;20.37;;;;;;;;;;2040844;29;20513;-56
2022/02/27 02:42:25;;;;;;;28.97;19.30;;;;;;;;;;2041211;29;20819;-53
2022/02/27 02:43:27;;;;;;;28.43;18.93;;;;;;;;;;2050168;28;20420;-53
2022/02/27 02:44:27;;;;;;;31.10;18.93;;;;;;;;;;2055970;28;20436;-57
2022/02/27 02:45:27;;;;;;;26.63;18.53;;;;;;;;;;2049630;29;20179;-56
2022/02/27 02:46:29;;;;;;;23.70;18.37;;;;;;;;;;2041767;29;20199;-55
2022/02/27 02:47:29;;;;;;;30.33;19.57;;;;;;;;;;2041829;29;20204;-52
2022/02/27 02:48:30;;;;;;;23.07;18.00;;;;;;;;;;2049097;28;20487;-54
2022/02/27 02:49:45;;;;;;;29.77;19.13;;;;;;;;;;2051844;28;20182;-54
2022/02/27 02:50:45;;;;;;;30.80;20.17;;;;;;;;;;2040516;29;20524;-52
2022/02/27 02:51:45;;;;;;;27.17;18.47;;;;;;;;;;2031847;29;20263;-53
2022/02/27 02:52:46;;;;;;;29.60;19.80;;;;;;;;;;2033102;29;20184;-55
2022/02/27 02:53:46;;;;;;;28.57;17.83;;;;;;;;;;2041239;29;20191;-56
2022/02/27 02:54:46;;;;;;;27.63;17.83;;;;;;;;;;2047785;29;20171;-51
2022/02/27 02:55:46;;;;;;;25.43;18.87;;;;;;;;;;2057235;28;20182;-55
2022/02/27 02:56:47;;;;;;;30.30;18.57;;;;;;;;;;2056530;28;20209;-55
2022/02/27 02:57:47;;;;;;;28.93;18.60;;;;;;;;;;2057966;28;20565;-56
2022/02/27 02:58:48;;;;;;;26.90;18.90;;;;;;;;;;2053175;28;20588;-53
2022/02/27 02:59:50;;;;;;;22.47;18.07;;;;;;;;;;2056328;28;20656;-53
2022/02/27 03:00:50;;;;;;;28.07;17.27;;;;;;;;;;2041455;29;20172;-53
2022/02/27 03:01:50;;;;;;;30.70;19.03;;;;;;;;;;2040565;29;20434;-56
2022/02/27 03:02:50;;;;;;;26.30;18.57;;;;;;;;;;2047860;29;20172;-56
2022/02/27 03:03:51;;;;;;;24.33;17.97;;;;;;;;;;2042236;29;20593;-54
2022/02/27 03:04:51;;;;;;;29.37;19.17;;;;;;;;;;2051870;28;20287;-57
2022/02/27 03:05:52;;;;;;;29.33;19.43;;;;;;;;;;2058677;28;20179;-56
2022/02/27 03:06:52;;;;;;;30.87;17.67;;;;;;;;;;2055394;28;20272;-52
2022/02/27 03:07:53;;;;;;;29.53;18.90;;;;;;;;;;2057842;28;20189;-54
2022/02/27 03:08:53;;;;;;;28.37;19.53;;;;;;;;;;2053684;28;20290;-50
2022/02/27 03:09:53;;;;;;;25.40;18.20;;;;;;;;;;2056684;28;20182;-56
2022/02/27 03:10:53;;;;;;;34.77;19.90;;;;;;;;;;2058615;28;20209;-58
2022/02/27 03:11:54;;;;;;;28.90;18.50;;;;;;;;;;2055524;28;20174;-54
2022/02/27 03:12:54;;;;;;;26.63;18.43;;;;;;;;;;2057534;28;20174;-55
2022/02/27 03:14:00;;;;;;;23.77;18.53;;;;;;;;;;2058175;28;20278;-56
2022/02/27 03:15:01;;;;;;;23.67;16.83;;;;;;;;;;2056533;28;20158;-56
2022/02/27 03:16:02;;;;;;;30.47;17.70;;;;;;;;;;2044376;29;20425;-54
2022/02/27 03:17:02;;;;;;;26.00;18.33;;;;;;;;;;2047307;29;20689;-57
2022/02/27 03:18:02;;;;;;;21.87;17.13;;;;;;;;;;2048897;29;20186;-55
2022/02/27 03:19:02;;;;;;;33.23;18.07;;;;;;;;;;2048443;29;20198;-55
2022/02/27 03:20:03;;;;;;;23.40;17.30;;;;;;;;;;2057734;28;20269;-53
2022/02/27 03:21:04;;;;;;;30.63;17.53;;;;;;;;;;2046229;29;20566;-52
2022/02/27 03:22:04;;;;;;;21.77;16.23;;;;;;;;;;2040814;29;20271;-54
2022/02/27 03:23:04;;;;;;;28.90;18.23;;;;;;;;;;2039052;29;20558;-55
2022/02/27 03:24:05;;;;;;;21.60;17.17;;;;;;;;;;2045396;29;20194;-53
2022/02/27 03:25:05;;;;;;;27.93;17.77;;;;;;;;;;2056031;28;20183;-55
2022/02/27 03:26:05;;;;;;;25.90;18.27;;;;;;;;;;2056856;28;20170;-56
2022/02/27 03:27:06;;;;;;;30.10;17.73;;;;;;;;;;2055545;28;20200;-53
2022/02/27 03:28:06;;;;;;;28.97;17.10;;;;;;;;;;2054829;28;20204;-54
2022/02/27 03:29:06;;;;;;;23.27;17.17;;;;;;;;;;2046865;29;20674;-54
2022/02/27 03:30:06;;;;;;;21.50;17.70;;;;;;;;;;2048858;29;20225;-55
2022/02/27 03:31:07;;;;;;;25.93;18.10;;;;;;;;;;2054893;28;20206;-54
2022/02/27 03:32:07;;;;;;;27.53;17.60;;;;;;;;;;2055841;28;20170;-56
2022/02/27 03:33:08;;;;;;;27.47;17.90;;;;;;;;;;2056945;28;20584;-53
2022/02/27 03:34:08;;;;;;;27.27;18.10;;;;;;;;;;2055204;28;20213;-53
2022/02/27 03:35:08;;;;;;;26.20;18.10;;;;;;;;;;2054084;28;20178;-53
2022/02/27 03:36:09;;;;;;;26.57;18.10;;;;;;;;;;2053325;28;20187;-56
2022/02/27 03:37:09;;;;;;;25.30;18.03;;;;;;;;;;2045067;28;20559;-55
2022/02/27 03:38:10;;;;;;;29.73;17.80;;;;;;;;;;2047491;29;20175;-54
2022/02/27 03:39:10;;;;;;;25.87;18.20;;;;;;;;;;2054181;28;20178;-53
2022/02/27 03:40:11;;;;;;;25.07;18.50;;;;;;;;;;2055549;28;20443;-55
2022/02/27 03:41:11;;;;;;;29.43;18.20;;;;;;;;;;2054174;28;20265;-55
2022/02/27 03:42:11;;;;;;;25.07;17.23;;;;;;;;;;2055307;28;20220;-56
2022/02/27 03:43:12;;;;;;;26.93;17.57;;;;;;;;;;2054092;28;20170;-53
2022/02/27 03:44:12;;;;;;;27.90;18.30;;;;;;;;;;2052500;28;20182;-55
2022/02/27 03:45:13;;;;;;;32.53;18.57;;;;;;;;;;2053852;28;20537;-53
2022/02/27 03:46:14;;;;;;;24.23;18.33;;;;;;;;;;2056336;28;20252;-56
2022/02/27 03:47:14;;;;;;;27.13;18.70;;;;;;;;;;2057354;28;20435;-56
2022/02/27 03:48:14;;;;;;;33.33;18.83;;;;;;;;;;2047111;29;20182;-55
2022/02/27 03:49:14;;;;;;;26.03;18.43;;;;;;;;;;2049177;29;20190;-56
2022/02/27 03:50:16;;;;;;;36.67;17.97;;;;;;;;;;2052655;28;20254;-55
2022/02/27 03:51:16;;;;;;;28.13;18.57;;;;;;;;;;2049584;28;20545;-55
2022/02/27 03:52:17;;;;;;;22.43;18.27;;;;;;;;;;2054245;28;20428;-53
2022/02/27 03:53:18;;;;;;;25.50;18.30;;;;;;;;;;2048900;29;20257;-53
2022/02/27 03:54:20;;;;;;;24.93;18.53;;;;;;;;;;2047661;28;20187;-51
2022/02/27 03:55:20;;;;;;;29.97;18.90;;;;;;;;;;2057128;28;20174;-56
2022/02/27 03:56:20;;;;;;;24.10;17.73;;;;;;;;;;2056239;28;20863;-55
2022/02/27 03:57:20;;;;;;;26.10;18.70;;;;;;;;;;2050171;28;20222;-57
2022/02/27 03:58:20;;;;;;;29.57;18.03;;;;;;;;;;2041814;29;20194;-56
2022/02/27 03:59:21;;;;;;;27.07;16.70;;;;;;;;;;2051466;29;20175;-56
2022/02/27 04:00:21;;;;;;;20.03;17.00;;;;;;;;;;2057756;28;20202;-57
2022/02/27 04:01:21;;;;;;;30.10;16.80;;;;;;;;;;2058127;28;20194;-57
2022/02/27 04:02:22;;;;;;;23.93;16.80;;;;;;;;;;2049476;29;20217;-54
2022/02/27 04:03:22;;;;;;;31.07;16.37;;;;;;;;;;2048605;29;20186;-53
2022/02/27 04:04:22;;;;;;;24.50;16.83;;;;;;;;;;2049544;29;20277;-55
2022/02/27 04:05:22;;;;;;;22.03;15.83;;;;;;;;;;2051948;29;20191;-55
2022/02/27 04:06:23;;;;;;;29.30;16.70;;;;;;;;;;2059730;28;20201;-57
2022/02/27 04:07:23;;;;;;;26.53;16.80;;;;;;;;;;2058496;28;20209;-54
2022/02/27 04:08:23;;;;;;;22.70;16.37;;;;;;;;;;2060443;28;20178;-58
2022/02/27 04:09:23;;;;;;;26.00;17.07;;;;;;;;;;2060614;28;20190;-58
2022/02/27 04:10:24;;;;;;;27.13;16.20;;;;;;;;;;2060938;28;20249;-55
2022/02/27 04:11:24;;;;;;;23.63;17.50;;;;;;;;;;2061328;28;20170;-56
2022/02/27 04:12:24;;;;;;;27.23;17.27;;;;;;;;;;2061161;28;20197;-57
2022/02/27 04:13:24;;;;;;;21.07;15.83;;;;;;;;;;2051087;28;20213;-58
2022/02/27 04:14:24;;;;;;;27.20;17.37;;;;;;;;;;2053416;29;20174;-55
2022/02/27 04:15:25;;;;;;;23.17;16.37;;;;;;;;;;2060041;28;20209;-57
2022/02/27 04:16:25;;;;;;;21.67;16.10;;;;;;;;;;2048160;29;20222;-56
2022/02/27 04:17:26;;;;;;;26.67;15.93;;;;;;;;;;2051482;28;20190;-55
2022/02/27 04:18:26;;;;;;;26.53;17.97;;;;;;;;;;2057120;28;20195;-56
2022/02/27 04:19:26;;;;;;;24.30;16.33;;;;;;;;;;2059505;28;20271;-57
2022/02/27 04:20:27;;;;;;;24.87;17.83;;;;;;;;;;2056943;28;20696;-57
2022/02/27 04:21:27;;;;;;;23.10;17.50;;;;;;;;;;2059590;28;20182;-54
2022/02/27 04:22:27;;;;;;;26.00;16.53;;;;;;;;;;2055713;28;20190;-57
2022/02/27 04:23:28;;;;;;;32.23;17.07;;;;;;;;;;2055167;28;20179;-57
2022/02/27 04:24:28;;;;;;;27.17;16.60;;;;;;;;;;2053906;28;20182;-56
2022/02/27 04:25:28;;;;;;;20.70;16.63;;;;;;;;;;2049970;29;20191;-56
2022/02/27 04:26:28;;;;;;;27.33;16.60;;;;;;;;;;2048549;29;20175;-57
2022/02/27 04:27:29;;;;;;;30.20;17.23;;;;;;;;;;2059725;28;20203;-58
2022/02/27 04:28:29;;;;;;;21.83;15.87;;;;;;;;;;2054613;28;20536;-54
2022/02/27 04:29:29;;;;;;;22.17;16.30;;;;;;;;;;2050642;29;20203;-56
2022/02/27 04:30:30;;;;;;;23.63;16.57;;;;;;;;;;2051313;29;20194;-59
2022/02/27 04:31:30;;;;;;;24.10;16.10;;;;;;;;;;2054041;28;20179;-58
2022/02/27 04:32:30;;;;;;;23.80;15.97;;;;;;;;;;2059656;28;20277;-57
2022/02/27 04:33:31;;;;;;;24.87;16.37;;;;;;;;;;2061147;28;20182;-55
2022/02/27 04:34:31;;;;;;;23.20;16.67;;;;;;;;;;2060835;28;20210;-54
2022/02/27 04:35:31;;;;;;;20.03;16.10;;;;;;;;;;2060576;28;20190;-56
2022/02/27 04:36:31;;;;;;;24.53;16.93;;;;;;;;;;2052804;28;20171;-54
2022/02/27 04:37:32;;;;;;;28.73;16.17;;;;;;;;;;2058583;28;20206;-56
2022/02/27 04:38:32;;;;;;;21.87;15.17;;;;;;;;;;2052513;28;20253;-57
2022/02/27 04:39:32;;;;;;;20.10;15.77;;;;;;;;;;2059422;28;20180;-55
2022/02/27 04:40:33;;;;;;;21.33;15.63;;;;;;;;;;2052335;28;20187;-54
2022/02/27 04:41:34;;;;;;;26.17;16.50;;;;;;;;;;2059675;28;20174;-52
2022/02/27 04:42:34;;;;;;;24.90;16.33;;;;;;;;;;2060128;28;20431;-57
2022/02/27 04:43:34;;;;;;;22.37;16.10;;;;;;;;;;2060396;28;20182;-57
2022/02/27 04:44:34;;;;;;;22.37;16.43;;;;;;;;;;2060284;28;20179;-58
2022/02/27 04:45:35;;;;;;;24.83;15.83;;;;;;;;;;2060336;28;20185;-54
2022/02/27 04:46:35;;;;;;;28.37;16.23;;;;;;;;;;2051364;29;20187;-54
2022/02/27 04:47:35;;;;;;;23.57;16.87;;;;;;;;;;2051177;28;20199;-56
2022/02/27 04:48:36;;;;;;;23.10;15.70;;;;;;;;;;2059881;28;20216;-55
2022/02/27 04:49:36;;;;;;;26.43;15.37;;;;;;;;;;2050972;29;20179;-55
2022/02/27 04:50:36;;;;;;;29.10;16.33;;;;;;;;;;2042834;29;20188;-55
2022/02/27 04:51:37;;;;;;;25.50;16.77;;;;;;;;;;2042816;29;20200;-57
2022/02/27 04:52:37;;;;;;;25.27;16.53;;;;;;;;;;2050528;29;20198;-56
2022/02/27 04:53:37;;;;;;;25.80;16.70;;;;;;;;;;2055634;28;20185;-56
2022/02/27 04:54:37;;;;;;;24.47;16.00;;;;;;;;;;2059286;28;20166;-56
2022/02/27 04:55:38;;;;;;;23.20;15.70;;;;;;;;;;2058990;28;20170;-55
2022/02/27 04:56:38;;;;;;;26.07;16.07;;;;;;;;;;2059969;28;20237;-53
2022/02/27 04:57:38;;;;;;;22.97;15.70;;;;;;;;;;2061431;28;20194;-54
2022/02/27 04:58:39;;;;;;;19.90;15.53;;;;;;;;;;2057508;28;20175;-55
2022/02/27 04:59:39;;;;;;;22.33;15.47;;;;;;;;;;2053151;29;20186;-57
2022/02/27 05:00:40;;;;;;;19.40;14.93;;;;;;;;;;2055103;29;20254;-56
2022/02/27 05:01:40;;;;;;;21.07;14.27;;;;;;;;;;2064764;28;20177;-56
2022/02/27 05:02:40;;;;;;;21.57;15.87;;;;;;;;;;2070435;28;20185;-56
2022/02/27 05:03:40;;;;;;;22.17;14.93;;;;;;;;;;2054651;28;20270;-58
2022/02/27 05:04:41;;;;;;;25.20;15.00;;;;;;;;;;2053830;29;20190;-56
2022/02/27 05:05:41;;;;;;;21.90;15.27;;;;;;;;;;2055333;29;20198;-57
2022/02/27 05:06:41;;;;;;;32.17;16.67;;;;;;;;;;2054449;29;20201;-57
2022/02/27 05:07:42;;;;;;;22.10;14.63;;;;;;;;;;2054779;28;20198;-58
2022/02/27 05:08:42;;;;;;;20.93;14.90;;;;;;;;;;2060112;28;20662;-57
2022/02/27 05:09:42;;;;;;;21.23;14.80;;;;;;;;;;2058289;28;20201;-54
2022/02/27 05:10:42;;;;;;;23.20;15.00;;;;;;;;;;2048963;29;20199;-56
2022/02/27 05:11:44;;;;;;;17.10;13.83;;;;;;;;;;2053184;29;20697;-55
2022/02/27 05:12:44;;;;;;;20.63;15.67;;;;;;;;;;2050692;28;20171;-56
2022/02/27 05:13:44;;;;;;;20.93;14.93;;;;;;;;;;2047431;29;20446;-57
2022/02/27 05:14:44;;;;;;;23.80;14.33;;;;;;;;;;2043384;29;20178;-57
2022/02/27 05:15:45;;;;;;;20.20;14.20;;;;;;;;;;2052100;29;20240;-55
2022/02/27 05:16:45;;;;;;;25.27;14.20;;;;;;;;;;2060897;28;20179;-56
2022/02/27 05:17:45;;;;;;;15.30;13.23;;;;;;;;;;2060917;28;20217;-56
2022/02/27 05:18:45;;;;;;;23.00;14.20;;;;;;;;;;2060859;28;20266;-56
2022/02/27 05:19:46;;;;;;;25.73;14.80;;;;;;;;;;2060119;28;20186;-56
2022/02/27 05:20:46;;;;;;;22.60;13.77;;;;;;;;;;2060133;28;20632;-55
2022/02/27 05:21:46;;;;;;;18.93;13.37;;;;;;;;;;2051104;29;20183;-57
2022/02/27 05:22:47;;;;;;;22.50;15.37;;;;;;;;;;2051223;29;20175;-56
2022/02/27 05:23:48;;;;;;;23.20;14.37;;;;;;;;;;2055159;28;20194;-55
2022/02/27 05:24:48;;;;;;;20.50;14.43;;;;;;;;;;2051965;29;20421;-55
2022/02/27 05:25:48;;;;;;;25.63;14.37;;;;;;;;;;2052030;28;20163;-54
2022/02/27 05:26:48;;;;;;;19.37;14.63;;;;;;;;;;2049055;29;20262;-57
2022/02/27 05:27:50;;;;;;;19.57;15.20;;;;;;;;;;2050326;28;20199;-56
2022/02/27 05:28:50;;;;;;;25.37;14.67;;;;;;;;;;2058700;28;20867;-55
2022/02/27 05:29:51;;;;;;;20.30;13.53;;;;;;;;;;2058705;28;20419;-55
2022/02/27 05:30:52;;;;;;;20.77;14.67;;;;;;;;;;2059222;28;20213;-55
2022/02/27 05:31:52;;;;;;;15.93;13.27;;;;;;;;;;2059178;28;20252;-56
2022/02/27 05:32:52;;;;;;;21.37;15.40;;;;;;;;;;2056933;28;20178;-53
2022/02/27 05:33:52;;;;;;;23.13;14.43;;;;;;;;;;2058342;28;20232;-56
2022/02/27 05:34:53;;;;;;;20.03;14.30;;;;;;;;;;2058153;28;20546;-52
2022/02/27 05:35:53;;;;;;;23.43;14.20;;;;;;;;;;2058585;28;20616;-52
2022/02/27 05:36:54;;;;;;;20.13;15.03;;;;;;;;;;2058621;28;20674;-54
2022/02/27 05:37:54;;;;;;;17.60;14.03;;;;;;;;;;2058079;28;20333;-55
2022/02/27 05:38:55;;;;;;;21.80;14.33;;;;;;;;;;2058568;28;20186;-56
2022/02/27 05:39:55;;;;;;;19.40;14.53;;;;;;;;;;2058197;28;20169;-55
2022/02/27 05:40:55;;;;;;;20.20;14.20;;;;;;;;;;2058502;28;20650;-57
2022/02/27 05:41:56;;;;;;;22.87;14.33;;;;;;;;;;2048780;29;20633;-57
2022/02/27 05:42:56;;;;;;;26.30;13.87;;;;;;;;;;2041890;29;20168;-54
2022/02/27 05:43:56;;;;;;;27.37;15.03;;;;;;;;;;2055700;28;20174;-53
2022/02/27 05:44:57;;;;;;;23.67;14.30;;;;;;;;;;2057934;28;20654;-56
2022/02/27 05:45:57;;;;;;;21.00;15.17;;;;;;;;;;2058738;28;20169;-54
2022/02/27 05:46:57;;;;;;;16.97;14.70;;;;;;;;;;2058044;28;20531;-54
2022/02/27 05:47:58;;;;;;;27.83;14.83;;;;;;;;;;2058424;28;20163;-52
2022/02/27 05:48:58;;;;;;;23.03;15.83;;;;;;;;;;2058101;28;20236;-53
2022/02/27 05:49:58;;;;;;;21.27;15.13;;;;;;;;;;2058119;28;20194;-52
2022/02/27 05:50:58;;;;;;;22.83;15.30;;;;;;;;;;2058360;28;20174;-55
2022/02/27 05:51:59;;;;;;;20.87;15.10;;;;;;;;;;2058369;28;20185;-57